sensor_id;sensor_type;location;lat;lon;timestamp;P1;durP1;ratioP1;P2;durP2;ratioP2
18947;SDS011;9607;51.600;7.558;2022-09-09T04:21:49;2.03;;;1.77;;
18947;SDS011;9607;51.600;7.558;2022-09-09T04:26:52;2.00;;;1.90;;
18947;SDS011;9607;51.600;7.558;2022-09-09T04:29:18;1.92;;;1.83;;
18947;SDS011;9607;51.600;7.558;2022-09-09T04:31:45;2.40;;;2.20;;
18947;SDS011;9607;51.600;7.558;2022-09-09T04:34:12;1.95;;;1.75;;
18947;SDS011;9607;51.600;7.558;2022-09-09T04:36:39;1.45;;;1.35;;
18947;SDS011;9607;51.600;7.558;2022-09-09T04:39:07;1.75;;;1.65;;
18947;SDS011;9607;51.600;7.558;2022-09-09T04:41:34;1.60;;;1.50;;
18947;SDS011;9607;51.600;7.558;2022-09-09T04:44:02;1.42;;;1.33;;
18947;SDS011;9607;51.600;7.558;2022-09-09T04:46:29;1.55;;;1.45;;
18947;SDS011;9607;51.600;7.558;2022-09-09T04:48:56;1.55;;;1.45;;
18947;SDS011;9607;51.600;7.558;2022-09-09T04:51:23;1.25;;;1.15;;
18947;SDS011;9607;51.600;7.558;2022-09-09T04:53:50;1.40;;;1.30;;
18947;SDS011;9607;51.600;7.558;2022-09-09T04:56:20;1.50;;;1.33;;
18947;SDS011;9607;51.600;7.558;2022-09-09T04:58:47;1.10;;;0.95;;
18947;SDS011;9607;51.600;7.558;2022-09-09T05:01:15;1.15;;;1.05;;
18947;SDS011;9607;51.600;7.558;2022-09-09T05:03:43;1.20;;;1.10;;
18947;SDS011;9607;51.600;7.558;2022-09-09T05:06:11;1.52;;;1.42;;
18947;SDS011;9607;51.600;7.558;2022-09-09T05:08:39;1.33;;;1.23;;
18947;SDS011;9607;51.600;7.558;2022-09-09T05:11:18;1.55;;;1.45;;
18947;SDS011;9607;51.600;7.558;2022-09-09T05:13:48;1.50;;;1.40;;
18947;SDS011;9607;51.600;7.558;2022-09-09T05:16:15;1.38;;;1.27;;
18947;SDS011;9607;51.600;7.558;2022-09-09T05:18:43;1.25;;;1.15;;
18947;SDS011;9607;51.600;7.558;2022-09-09T05:21:11;2.15;;;1.50;;
18947;SDS011;9607;51.600;7.558;2022-09-09T05:23:39;1.40;;;1.30;;
18947;SDS011;9607;51.600;7.558;2022-09-09T05:26:08;1.10;;;1.10;;
18947;SDS011;9607;51.600;7.558;2022-09-09T05:28:38;1.45;;;1.35;;
18947;SDS011;9607;51.600;7.558;2022-09-09T05:31:06;1.10;;;1.00;;
18947;SDS011;9607;51.600;7.558;2022-09-09T05:33:36;1.10;;;1.10;;
18947;SDS011;9607;51.600;7.558;2022-09-09T05:36:06;1.30;;;1.20;;
18947;SDS011;9607;51.600;7.558;2022-09-09T05:38:35;1.20;;;1.10;;
18947;SDS011;9607;51.600;7.558;2022-09-09T05:41:03;1.20;;;1.05;;
18947;SDS011;9607;51.600;7.558;2022-09-09T05:43:30;1.30;;;1.15;;
18947;SDS011;9607;51.600;7.558;2022-09-09T05:46:01;1.40;;;1.30;;
18947;SDS011;9607;51.600;7.558;2022-09-09T05:48:32;1.40;;;1.30;;
18947;SDS011;9607;51.600;7.558;2022-09-09T05:51:00;1.10;;;1.10;;
18947;SDS011;9607;51.600;7.558;2022-09-09T05:53:28;1.15;;;1.08;;
18947;SDS011;9607;51.600;7.558;2022-09-09T05:55:59;1.15;;;1.10;;
18947;SDS011;9607;51.600;7.558;2022-09-09T05:58:28;1.15;;;1.05;;
18947;SDS011;9607;51.600;7.558;2022-09-09T06:01:02;1.42;;;1.33;;
18947;SDS011;9607;51.600;7.558;2022-09-09T06:03:33;1.30;;;1.20;;
18947;SDS011;9607;51.600;7.558;2022-09-09T06:06:01;1.30;;;1.20;;
18947;SDS011;9607;51.600;7.558;2022-09-09T06:08:30;1.05;;;1.02;;
18947;SDS011;9607;51.600;7.558;2022-09-09T06:11:00;1.05;;;1.02;;
18947;SDS011;9607;51.600;7.558;2022-09-09T06:13:29;1.25;;;1.15;;
18947;SDS011;9607;51.600;7.558;2022-09-09T06:15:57;1.45;;;1.35;;
18947;SDS011;9607;51.600;7.558;2022-09-09T06:18:24;1.63;;;1.17;;
18947;SDS011;9607;51.600;7.558;2022-09-09T06:20:56;1.70;;;1.60;;
18947;SDS011;9607;51.600;7.558;2022-09-09T06:23:25;1.65;;;1.55;;
18947;SDS011;9607;51.600;7.558;2022-09-09T06:26:00;4.38;;;1.80;;
18947;SDS011;9607;51.600;7.558;2022-09-09T06:28:28;2.25;;;1.70;;
18947;SDS011;9607;51.600;7.558;2022-09-09T06:30:57;3.03;;;2.15;;
18947;SDS011;9607;51.600;7.558;2022-09-09T06:33:25;2.13;;;2.00;;
18947;SDS011;9607;51.600;7.558;2022-09-09T06:35:53;3.75;;;2.03;;
18947;SDS011;9607;51.600;7.558;2022-09-09T06:38:23;3.38;;;1.92;;
18947;SDS011;9607;51.600;7.558;2022-09-09T06:40:51;2.00;;;1.80;;
18947;SDS011;9607;51.600;7.558;2022-09-09T06:43:20;2.90;;;2.05;;
18947;SDS011;9607;51.600;7.558;2022-09-09T06:45:54;4.43;;;2.17;;
18947;SDS011;9607;51.600;7.558;2022-09-09T06:48:23;3.10;;;1.92;;
18947;SDS011;9607;51.600;7.558;2022-09-09T06:50:59;3.08;;;1.83;;
18947;SDS011;9607;51.600;7.558;2022-09-09T06:53:29;2.60;;;2.10;;
18947;SDS011;9607;51.600;7.558;2022-09-09T06:55:56;3.88;;;2.10;;
18947;SDS011;9607;51.600;7.558;2022-09-09T06:58:23;1.95;;;1.75;;
18947;SDS011;9607;51.600;7.558;2022-09-09T07:00:49;4.30;;;1.90;;
18947;SDS011;9607;51.600;7.558;2022-09-09T07:03:16;3.25;;;2.38;;
18947;SDS011;9607;51.600;7.558;2022-09-09T07:05:43;3.10;;;1.73;;
18947;SDS011;9607;51.600;7.558;2022-09-09T07:08:21;2.03;;;1.75;;
18947;SDS011;9607;51.600;7.558;2022-09-09T07:10:49;2.33;;;1.83;;
18947;SDS011;9607;51.600;7.558;2022-09-09T07:13:16;2.97;;;1.80;;
18947;SDS011;9607;51.600;7.558;2022-09-09T07:15:46;2.47;;;1.63;;
18947;SDS011;9607;51.600;7.558;2022-09-09T07:18:12;3.28;;;1.75;;
18947;SDS011;9607;51.600;7.558;2022-09-09T07:20:39;2.85;;;1.65;;
18947;SDS011;9607;51.600;7.558;2022-09-09T07:23:06;3.03;;;1.60;;
18947;SDS011;9607;51.600;7.558;2022-09-09T07:25:34;3.95;;;1.70;;
18947;SDS011;9607;51.600;7.558;2022-09-09T07:28:03;2.13;;;1.73;;
18947;SDS011;9607;51.600;7.558;2022-09-09T07:30:30;1.80;;;1.70;;
18947;SDS011;9607;51.600;7.558;2022-09-09T07:32:57;2.47;;;1.60;;
18947;SDS011;9607;51.600;7.558;2022-09-09T07:35:24;3.65;;;1.77;;
18947;SDS011;9607;51.600;7.558;2022-09-09T07:37:51;1.88;;;1.45;;
18947;SDS011;9607;51.600;7.558;2022-09-09T07:40:18;3.33;;;1.83;;
18947;SDS011;9607;51.600;7.558;2022-09-09T07:42:46;4.07;;;1.52;;
18947;SDS011;9607;51.600;7.558;2022-09-09T07:45:15;2.00;;;1.17;;
18947;SDS011;9607;51.600;7.558;2022-09-09T07:47:42;2.72;;;1.40;;
18947;SDS011;9607;51.600;7.558;2022-09-09T07:50:09;2.85;;;1.20;;
18947;SDS011;9607;51.600;7.558;2022-09-09T07:52:36;2.45;;;1.30;;
18947;SDS011;9607;51.600;7.558;2022-09-09T07:55:03;2.47;;;1.33;;
18947;SDS011;9607;51.600;7.558;2022-09-09T07:57:31;4.07;;;1.60;;
18947;SDS011;9607;51.600;7.558;2022-09-09T07:59:58;4.47;;;1.23;;
18947;SDS011;9607;51.600;7.558;2022-09-09T08:02:26;3.55;;;1.33;;
18947;SDS011;9607;51.600;7.558;2022-09-09T08:04:54;1.38;;;1.00;;
18947;SDS011;9607;51.600;7.558;2022-09-09T08:07:21;3.65;;;1.25;;
18947;SDS011;9607;51.600;7.558;2022-09-09T08:09:48;3.20;;;1.40;;
18947;SDS011;9607;51.600;7.558;2022-09-09T08:12:15;3.75;;;1.60;;
18947;SDS011;9607;51.600;7.558;2022-09-09T08:14:42;3.67;;;1.50;;
18947;SDS011;9607;51.600;7.558;2022-09-09T08:17:09;4.72;;;1.55;;
18947;SDS011;9607;51.600;7.558;2022-09-09T08:19:37;1.70;;;0.85;;
18947;SDS011;9607;51.600;7.558;2022-09-09T08:22:04;5.95;;;1.52;;
18947;SDS011;9607;51.600;7.558;2022-09-09T08:24:31;4.07;;;1.48;;
18947;SDS011;9607;51.600;7.558;2022-09-09T08:26:58;3.25;;;1.40;;
18947;SDS011;9607;51.600;7.558;2022-09-09T08:29:25;3.97;;;1.52;;
18947;SDS011;9607;51.600;7.558;2022-09-09T08:31:54;2.95;;;1.15;;
18947;SDS011;9607;51.600;7.558;2022-09-09T08:34:23;4.55;;;1.58;;
18947;SDS011;9607;51.600;7.558;2022-09-09T08:36:53;2.42;;;1.10;;
18947;SDS011;9607;51.600;7.558;2022-09-09T08:39:20;6.38;;;1.50;;
18947;SDS011;9607;51.600;7.558;2022-09-09T08:41:58;4.70;;;1.50;;
18947;SDS011;9607;51.600;7.558;2022-09-09T08:44:40;2.40;;;1.25;;
18947;SDS011;9607;51.600;7.558;2022-09-09T08:47:18;3.58;;;1.33;;
18947;SDS011;9607;51.600;7.558;2022-09-09T08:49:58;2.80;;;1.63;;
18947;SDS011;9607;51.600;7.558;2022-09-09T08:52:38;3.80;;;1.40;;
18947;SDS011;9607;51.600;7.558;2022-09-09T08:55:20;2.50;;;1.17;;
18947;SDS011;9607;51.600;7.558;2022-09-09T08:57:51;5.40;;;1.73;;
18947;SDS011;9607;51.600;7.558;2022-09-09T09:00:20;2.17;;;1.10;;
18947;SDS011;9607;51.600;7.558;2022-09-09T09:02:52;3.35;;;1.10;;
18947;SDS011;9607;51.600;7.558;2022-09-09T09:05:25;3.28;;;1.17;;
18947;SDS011;9607;51.600;7.558;2022-09-09T09:08:01;2.95;;;1.00;;
18947;SDS011;9607;51.600;7.558;2022-09-09T09:10:39;1.73;;;1.08;;
18947;SDS011;9607;51.600;7.558;2022-09-09T09:13:13;3.35;;;1.42;;
18947;SDS011;9607;51.600;7.558;2022-09-09T09:15:43;4.72;;;1.65;;
18947;SDS011;9607;51.600;7.558;2022-09-09T09:18:15;6.38;;;1.73;;
18947;SDS011;9607;51.600;7.558;2022-09-09T09:20:47;4.43;;;1.58;;
18947;SDS011;9607;51.600;7.558;2022-09-09T09:23:22;5.80;;;1.50;;
18947;SDS011;9607;51.600;7.558;2022-09-09T09:25:52;4.10;;;1.50;;
18947;SDS011;9607;51.600;7.558;2022-09-09T09:28:24;4.32;;;1.60;;
18947;SDS011;9607;51.600;7.558;2022-09-09T09:30:53;3.40;;;1.35;;
18947;SDS011;9607;51.600;7.558;2022-09-09T09:33:24;3.20;;;2.03;;
18947;SDS011;9607;51.600;7.558;2022-09-09T09:35:54;4.38;;;1.80;;
18947;SDS011;9607;51.600;7.558;2022-09-09T09:38:22;4.88;;;1.48;;
18947;SDS011;9607;51.600;7.558;2022-09-09T09:40:51;3.90;;;1.60;;
18947;SDS011;9607;51.600;7.558;2022-09-09T09:43:24;4.32;;;1.77;;
18947;SDS011;9607;51.600;7.558;2022-09-09T09:45:53;3.85;;;1.58;;
18947;SDS011;9607;51.600;7.558;2022-09-09T09:48:20;2.97;;;1.40;;
18947;SDS011;9607;51.600;7.558;2022-09-09T09:50:48;3.78;;;1.70;;
18947;SDS011;9607;51.600;7.558;2022-09-09T09:53:20;5.35;;;1.60;;
18947;SDS011;9607;51.600;7.558;2022-09-09T09:55:53;4.68;;;1.60;;
18947;SDS011;9607;51.600;7.558;2022-09-09T09:58:23;4.88;;;1.73;;
18947;SDS011;9607;51.600;7.558;2022-09-09T10:00:53;4.47;;;1.40;;
18947;SDS011;9607;51.600;7.558;2022-09-09T10:03:24;3.45;;;1.38;;
18947;SDS011;9607;51.600;7.558;2022-09-09T10:05:53;3.10;;;1.20;;
18947;SDS011;9607;51.600;7.558;2022-09-09T10:08:23;1.80;;;1.23;;
18947;SDS011;9607;51.600;7.558;2022-09-09T10:10:52;3.95;;;1.20;;
18947;SDS011;9607;51.600;7.558;2022-09-09T10:13:32;5.13;;;1.58;;
18947;SDS011;9607;51.600;7.558;2022-09-09T10:16:13;6.20;;;1.30;;
18947;SDS011;9607;51.600;7.558;2022-09-09T10:18:58;2.67;;;1.05;;
18947;SDS011;9607;51.600;7.558;2022-09-09T10:21:33;4.78;;;1.60;;
18947;SDS011;9607;51.600;7.558;2022-09-09T10:24:30;1.73;;;0.93;;
18947;SDS011;9607;51.600;7.558;2022-09-09T10:27:11;3.33;;;1.10;;
18947;SDS011;9607;51.600;7.558;2022-09-09T10:30:06;1.52;;;0.80;;
18947;SDS011;9607;51.600;7.558;2022-09-09T10:32:45;3.67;;;1.10;;
18947;SDS011;9607;51.600;7.558;2022-09-09T10:35:26;2.28;;;0.75;;
18947;SDS011;9607;51.600;7.558;2022-09-09T10:38:13;2.17;;;0.98;;
18947;SDS011;9607;51.600;7.558;2022-09-09T10:41:00;3.13;;;1.25;;
18947;SDS011;9607;51.600;7.558;2022-09-09T10:43:54;3.08;;;1.13;;
18947;SDS011;9607;51.600;7.558;2022-09-09T10:46:36;3.83;;;1.17;;
18947;SDS011;9607;51.600;7.558;2022-09-09T10:49:15;3.22;;;1.27;;
18947;SDS011;9607;51.600;7.558;2022-09-09T10:51:53;2.78;;;0.90;;
18947;SDS011;9607;51.600;7.558;2022-09-09T10:54:34;3.88;;;1.33;;
18947;SDS011;9607;51.600;7.558;2022-09-09T10:57:13;5.40;;;1.20;;
18947;SDS011;9607;51.600;7.558;2022-09-09T10:59:46;3.55;;;0.95;;
18947;SDS011;9607;51.600;7.558;2022-09-09T11:02:16;4.03;;;1.23;;
18947;SDS011;9607;51.600;7.558;2022-09-09T11:04:49;4.00;;;1.33;;
18947;SDS011;9607;51.600;7.558;2022-09-09T11:07:24;4.13;;;1.17;;
18947;SDS011;9607;51.600;7.558;2022-09-09T11:10:01;3.97;;;1.27;;
18947;SDS011;9607;51.600;7.558;2022-09-09T11:12:33;3.58;;;1.35;;
18947;SDS011;9607;51.600;7.558;2022-09-09T11:15:04;2.47;;;1.60;;
18947;SDS011;9607;51.600;7.558;2022-09-09T11:17:39;2.92;;;1.17;;
18947;SDS011;9607;51.600;7.558;2022-09-09T11:20:12;2.55;;;0.90;;
18947;SDS011;9607;51.600;7.558;2022-09-09T11:22:42;1.92;;;0.98;;
18947;SDS011;9607;51.600;7.558;2022-09-09T11:25:15;3.13;;;1.13;;
18947;SDS011;9607;51.600;7.558;2022-09-09T11:27:49;1.98;;;0.60;;
18947;SDS011;9607;51.600;7.558;2022-09-09T11:30:24;4.75;;;1.48;;
18947;SDS011;9607;51.600;7.558;2022-09-09T11:33:10;3.00;;;1.00;;
18947;SDS011;9607;51.600;7.558;2022-09-09T11:35:57;2.15;;;1.00;;
18947;SDS011;9607;51.600;7.558;2022-09-09T11:38:40;4.72;;;1.13;;
18947;SDS011;9607;51.600;7.558;2022-09-09T11:41:11;2.63;;;0.80;;
18947;SDS011;9607;51.600;7.558;2022-09-09T11:43:43;1.85;;;1.08;;
18947;SDS011;9607;51.600;7.558;2022-09-09T11:46:12;2.22;;;0.73;;
18947;SDS011;9607;51.600;7.558;2022-09-09T11:48:42;4.20;;;1.23;;
18947;SDS011;9607;51.600;7.558;2022-09-09T11:51:11;2.58;;;0.80;;
18947;SDS011;9607;51.600;7.558;2022-09-09T11:53:48;2.53;;;0.80;;
18947;SDS011;9607;51.600;7.558;2022-09-09T11:56:24;2.08;;;0.90;;
18947;SDS011;9607;51.600;7.558;2022-09-09T11:58:55;3.05;;;0.98;;
18947;SDS011;9607;51.600;7.558;2022-09-09T12:01:30;2.53;;;1.00;;
18947;SDS011;9607;51.600;7.558;2022-09-09T12:04:05;2.78;;;0.88;;
18947;SDS011;9607;51.600;7.558;2022-09-09T12:06:42;4.53;;;1.27;;
18947;SDS011;9607;51.600;7.558;2022-09-09T12:09:17;1.38;;;0.70;;
18947;SDS011;9607;51.600;7.558;2022-09-09T12:11:51;3.40;;;1.02;;
18947;SDS011;9607;51.600;7.558;2022-09-09T12:14:23;2.17;;;0.80;;
18947;SDS011;9607;51.600;7.558;2022-09-09T12:17:10;1.65;;;0.55;;
18947;SDS011;9607;51.600;7.558;2022-09-09T12:19:45;4.05;;;1.35;;
18947;SDS011;9607;51.600;7.558;2022-09-09T12:22:15;4.35;;;1.00;;
18947;SDS011;9607;51.600;7.558;2022-09-09T12:24:49;2.08;;;0.77;;
18947;SDS011;9607;51.600;7.558;2022-09-09T12:27:23;3.47;;;0.98;;
18947;SDS011;9607;51.600;7.558;2022-09-09T12:29:55;3.47;;;0.75;;
18947;SDS011;9607;51.600;7.558;2022-09-09T12:32:28;1.38;;;0.73;;
18947;SDS011;9607;51.600;7.558;2022-09-09T12:34:55;3.88;;;0.68;;
18947;SDS011;9607;51.600;7.558;2022-09-09T12:37:27;2.50;;;0.80;;
18947;SDS011;9607;51.600;7.558;2022-09-09T12:39:58;4.30;;;1.30;;
18947;SDS011;9607;51.600;7.558;2022-09-09T12:42:27;3.88;;;0.70;;
18947;SDS011;9607;51.600;7.558;2022-09-09T12:44:56;3.22;;;0.82;;
18947;SDS011;9607;51.600;7.558;2022-09-09T12:47:37;1.38;;;0.70;;
18947;SDS011;9607;51.600;7.558;2022-09-09T12:50:14;3.03;;;1.20;;
18947;SDS011;9607;51.600;7.558;2022-09-09T12:52:43;2.80;;;1.00;;
18947;SDS011;9607;51.600;7.558;2022-09-09T12:55:16;2.60;;;0.77;;
18947;SDS011;9607;51.600;7.558;2022-09-09T12:57:46;2.72;;;0.90;;
18947;SDS011;9607;51.600;7.558;2022-09-09T13:00:18;2.00;;;0.90;;
18947;SDS011;9607;51.600;7.558;2022-09-09T13:02:48;2.40;;;0.70;;
18947;SDS011;9607;51.600;7.558;2022-09-09T13:05:17;4.85;;;1.10;;
18947;SDS011;9607;51.600;7.558;2022-09-09T13:07:46;1.80;;;1.13;;
18947;SDS011;9607;51.600;7.558;2022-09-09T13:10:14;1.95;;;0.70;;
18947;SDS011;9607;51.600;7.558;2022-09-09T13:12:52;2.97;;;1.13;;
18947;SDS011;9607;51.600;7.558;2022-09-09T13:15:22;3.97;;;0.93;;
18947;SDS011;9607;51.600;7.558;2022-09-09T13:17:52;1.40;;;0.73;;
18947;SDS011;9607;51.600;7.558;2022-09-09T13:20:20;2.65;;;1.00;;
18947;SDS011;9607;51.600;7.558;2022-09-09T13:22:49;1.40;;;0.70;;
18947;SDS011;9607;51.600;7.558;2022-09-09T13:25:19;2.10;;;0.93;;
18947;SDS011;9607;51.600;7.558;2022-09-09T13:27:59;1.50;;;0.70;;
18947;SDS011;9607;51.600;7.558;2022-09-09T13:30:29;1.95;;;0.70;;
18947;SDS011;9607;51.600;7.558;2022-09-09T13:33:05;2.25;;;0.95;;
18947;SDS011;9607;51.600;7.558;2022-09-09T13:35:45;3.65;;;1.33;;
18947;SDS011;9607;51.600;7.558;2022-09-09T13:38:14;2.20;;;1.38;;
18947;SDS011;9607;51.600;7.558;2022-09-09T13:40:51;4.38;;;1.60;;
18947;SDS011;9607;51.600;7.558;2022-09-09T13:43:21;2.03;;;1.20;;
18947;SDS011;9607;51.600;7.558;2022-09-09T13:45:54;1.48;;;0.88;;
18947;SDS011;9607;51.600;7.558;2022-09-09T13:48:22;3.47;;;1.20;;
18947;SDS011;9607;51.600;7.558;2022-09-09T13:50:54;3.53;;;1.20;;
18947;SDS011;9607;51.600;7.558;2022-09-09T13:53:21;2.97;;;1.10;;
18947;SDS011;9607;51.600;7.558;2022-09-09T13:55:48;2.58;;;1.10;;
18947;SDS011;9607;51.600;7.558;2022-09-09T13:58:17;3.97;;;1.13;;
18947;SDS011;9607;51.600;7.558;2022-09-09T14:00:44;2.55;;;0.90;;
18947;SDS011;9607;51.600;7.558;2022-09-09T14:03:13;3.45;;;0.90;;
18947;SDS011;9607;51.600;7.558;2022-09-09T14:05:40;2.80;;;1.50;;
18947;SDS011;9607;51.600;7.558;2022-09-09T14:08:07;2.38;;;1.08;;
18947;SDS011;9607;51.600;7.558;2022-09-09T14:10:42;1.75;;;0.93;;
18947;SDS011;9607;51.600;7.558;2022-09-09T14:13:08;3.70;;;1.20;;
18947;SDS011;9607;51.600;7.558;2022-09-09T14:15:37;2.58;;;1.05;;
18947;SDS011;9607;51.600;7.558;2022-09-09T14:18:04;3.33;;;1.08;;
18947;SDS011;9607;51.600;7.558;2022-09-09T14:20:32;1.23;;;0.65;;
18947;SDS011;9607;51.600;7.558;2022-09-09T14:22:59;1.60;;;0.95;;
18947;SDS011;9607;51.600;7.558;2022-09-09T14:25:26;2.67;;;0.80;;
18947;SDS011;9607;51.600;7.558;2022-09-09T14:27:53;4.32;;;1.75;;
18947;SDS011;9607;51.600;7.558;2022-09-09T14:30:21;2.38;;;0.90;;
18947;SDS011;9607;51.600;7.558;2022-09-09T14:32:48;2.15;;;0.90;;
18947;SDS011;9607;51.600;7.558;2022-09-09T14:35:15;4.20;;;0.90;;
18947;SDS011;9607;51.600;7.558;2022-09-09T14:37:44;3.60;;;0.75;;
18947;SDS011;9607;51.600;7.558;2022-09-09T14:40:11;3.20;;;1.17;;
18947;SDS011;9607;51.600;7.558;2022-09-09T14:42:40;2.70;;;1.00;;
18947;SDS011;9607;51.600;7.558;2022-09-09T14:45:07;3.47;;;1.10;;
18947;SDS011;9607;51.600;7.558;2022-09-09T14:47:34;2.45;;;1.00;;
18947;SDS011;9607;51.600;7.558;2022-09-09T14:50:03;4.97;;;1.80;;
18947;SDS011;9607;51.600;7.558;2022-09-09T14:52:31;1.90;;;1.10;;
18947;SDS011;9607;51.600;7.558;2022-09-09T14:54:59;2.83;;;0.82;;
18947;SDS011;9607;51.600;7.558;2022-09-09T14:57:26;2.10;;;0.88;;
18947;SDS011;9607;51.600;7.558;2022-09-09T14:59:53;2.10;;;0.60;;
18947;SDS011;9607;51.600;7.558;2022-09-09T15:02:19;1.80;;;0.90;;
18947;SDS011;9607;51.600;7.558;2022-09-09T15:04:46;1.98;;;1.05;;
18947;SDS011;9607;51.600;7.558;2022-09-09T15:07:14;2.72;;;0.68;;
18947;SDS011;9607;51.600;7.558;2022-09-09T15:09:41;1.63;;;0.88;;
18947;SDS011;9607;51.600;7.558;2022-09-09T15:12:09;1.90;;;0.75;;
18947;SDS011;9607;51.600;7.558;2022-09-09T15:14:36;1.50;;;0.73;;
18947;SDS011;9607;51.600;7.558;2022-09-09T15:17:04;1.67;;;0.80;;
18947;SDS011;9607;51.600;7.558;2022-09-09T15:19:31;2.08;;;0.60;;
18947;SDS011;9607;51.600;7.558;2022-09-09T15:21:58;2.17;;;0.95;;
18947;SDS011;9607;51.600;7.558;2022-09-09T15:24:25;3.28;;;1.10;;
18947;SDS011;9607;51.600;7.558;2022-09-09T15:26:52;2.67;;;0.68;;
18947;SDS011;9607;51.600;7.558;2022-09-09T15:29:20;2.22;;;1.00;;
18947;SDS011;9607;51.600;7.558;2022-09-09T15:31:47;2.10;;;0.93;;
18947;SDS011;9607;51.600;7.558;2022-09-09T15:34:13;2.15;;;0.90;;
18947;SDS011;9607;51.600;7.558;2022-09-09T15:36:41;1.40;;;0.63;;
18947;SDS011;9607;51.600;7.558;2022-09-09T15:39:09;3.63;;;1.08;;
18947;SDS011;9607;51.600;7.558;2022-09-09T15:41:38;1.80;;;0.95;;
18947;SDS011;9607;51.600;7.558;2022-09-09T15:44:06;3.47;;;1.30;;
18947;SDS011;9607;51.600;7.558;2022-09-09T15:46:35;2.05;;;1.20;;
18947;SDS011;9607;51.600;7.558;2022-09-09T15:49:04;2.47;;;0.85;;
18947;SDS011;9607;51.600;7.558;2022-09-09T15:51:34;3.33;;;1.27;;
18947;SDS011;9607;51.600;7.558;2022-09-09T15:54:02;3.03;;;0.90;;
18947;SDS011;9607;51.600;7.558;2022-09-09T15:56:29;4.75;;;1.60;;
18947;SDS011;9607;51.600;7.558;2022-09-09T16:01:55;4.00;;;1.40;;
18947;SDS011;9607;51.600;7.558;2022-09-09T16:07:01;2.88;;;1.33;;
18947;SDS011;9607;51.600;7.558;2022-09-09T16:09:29;2.25;;;1.13;;
18947;SDS011;9607;51.600;7.558;2022-09-09T16:11:58;1.40;;;0.82;;
18947;SDS011;9607;51.600;7.558;2022-09-09T16:14:27;3.38;;;1.10;;
18947;SDS011;9607;51.600;7.558;2022-09-09T16:16:55;1.23;;;0.70;;
18947;SDS011;9607;51.600;7.558;2022-09-09T16:19:22;2.78;;;1.13;;
18947;SDS011;9607;51.600;7.558;2022-09-09T16:21:49;2.17;;;0.80;;
18947;SDS011;9607;51.600;7.558;2022-09-09T16:24:17;1.58;;;0.70;;
18947;SDS011;9607;51.600;7.558;2022-09-09T16:26:45;1.02;;;0.80;;
18947;SDS011;9607;51.600;7.558;2022-09-09T16:29:13;1.95;;;1.00;;
18947;SDS011;9607;51.600;7.558;2022-09-09T16:31:42;1.50;;;0.80;;
18947;SDS011;9607;51.600;7.558;2022-09-09T16:34:11;1.98;;;0.70;;
18947;SDS011;9607;51.600;7.558;2022-09-09T16:36:39;0.70;;;0.60;;
18947;SDS011;9607;51.600;7.558;2022-09-09T16:39:07;1.60;;;1.08;;
18947;SDS011;9607;51.600;7.558;2022-09-09T16:41:36;1.88;;;1.30;;
18947;SDS011;9607;51.600;7.558;2022-09-09T16:44:05;1.40;;;1.13;;
18947;SDS011;9607;51.600;7.558;2022-09-09T16:46:34;4.43;;;1.33;;
18947;SDS011;9607;51.600;7.558;2022-09-09T16:49:03;2.08;;;1.33;;
18947;SDS011;9607;51.600;7.558;2022-09-09T16:51:34;1.42;;;1.33;;
18947;SDS011;9607;51.600;7.558;2022-09-09T16:54:02;3.78;;;1.20;;
18947;SDS011;9607;51.600;7.558;2022-09-09T16:56:31;1.73;;;1.00;;
18947;SDS011;9607;51.600;7.558;2022-09-09T16:58:59;2.00;;;0.93;;
18947;SDS011;9607;51.600;7.558;2022-09-09T17:01:28;2.95;;;1.00;;
18947;SDS011;9607;51.600;7.558;2022-09-09T17:03:56;1.48;;;0.88;;
18947;SDS011;9607;51.600;7.558;2022-09-09T17:06:25;1.60;;;0.70;;
18947;SDS011;9607;51.600;7.558;2022-09-09T17:08:54;0.80;;;0.70;;
18947;SDS011;9607;51.600;7.558;2022-09-09T17:11:22;1.52;;;0.75;;
18947;SDS011;9607;51.600;7.558;2022-09-09T17:13:49;2.00;;;0.77;;
18947;SDS011;9607;51.600;7.558;2022-09-09T17:16:18;1.25;;;0.85;;
18947;SDS011;9607;51.600;7.558;2022-09-09T17:18:47;1.40;;;0.82;;
18947;SDS011;9607;51.600;7.558;2022-09-09T17:21:15;0.93;;;0.70;;
18947;SDS011;9607;51.600;7.558;2022-09-09T17:23:43;0.88;;;0.60;;
18947;SDS011;9607;51.600;7.558;2022-09-09T17:26:13;0.60;;;0.60;;
18947;SDS011;9607;51.600;7.558;2022-09-09T17:28:41;1.17;;;1.00;;
18947;SDS011;9607;51.600;7.558;2022-09-09T17:31:10;1.65;;;0.88;;
18947;SDS011;9607;51.600;7.558;2022-09-09T17:33:40;1.90;;;0.70;;
18947;SDS011;9607;51.600;7.558;2022-09-09T17:36:10;1.08;;;0.90;;
18947;SDS011;9607;51.600;7.558;2022-09-09T17:38:40;0.70;;;0.63;;
18947;SDS011;9607;51.600;7.558;2022-09-09T17:41:08;0.73;;;0.73;;
18947;SDS011;9607;51.600;7.558;2022-09-09T17:43:38;1.20;;;0.80;;
18947;SDS011;9607;51.600;7.558;2022-09-09T17:46:06;0.95;;;0.95;;
18947;SDS011;9607;51.600;7.558;2022-09-09T17:48:33;1.52;;;1.00;;
18947;SDS011;9607;51.600;7.558;2022-09-09T17:51:02;0.85;;;0.85;;
18947;SDS011;9607;51.600;7.558;2022-09-09T17:53:29;1.42;;;1.00;;
18947;SDS011;9607;51.600;7.558;2022-09-09T17:56:01;1.40;;;1.13;;
18947;SDS011;9607;51.600;7.558;2022-09-09T17:58:28;1.65;;;1.00;;
18947;SDS011;9607;51.600;7.558;2022-09-09T18:00:56;1.42;;;1.10;;
18947;SDS011;9607;51.600;7.558;2022-09-09T18:03:28;1.52;;;1.05;;
18947;SDS011;9607;51.600;7.558;2022-09-09T18:05:58;1.30;;;1.20;;
18947;SDS011;9607;51.600;7.558;2022-09-09T18:08:28;1.40;;;1.30;;
18947;SDS011;9607;51.600;7.558;2022-09-09T18:10:55;2.78;;;1.25;;
18947;SDS011;9607;51.600;7.558;2022-09-09T18:13:22;2.20;;;1.30;;
18947;SDS011;9607;51.600;7.558;2022-09-09T18:15:49;2.08;;;1.50;;
18947;SDS011;9607;51.600;7.558;2022-09-09T18:18:17;1.20;;;1.10;;
18947;SDS011;9607;51.600;7.558;2022-09-09T18:20:44;2.65;;;1.20;;
18947;SDS011;9607;51.600;7.558;2022-09-09T18:23:11;1.23;;;1.13;;
18947;SDS011;9607;51.600;7.558;2022-09-09T18:25:40;1.65;;;1.30;;
18947;SDS011;9607;51.600;7.558;2022-09-09T18:28:08;1.10;;;1.00;;
18947;SDS011;9607;51.600;7.558;2022-09-09T18:30:37;1.30;;;1.20;;
18947;SDS011;9607;51.600;7.558;2022-09-09T18:33:05;1.75;;;1.63;;
18947;SDS011;9607;51.600;7.558;2022-09-09T18:35:35;1.90;;;1.55;;
18947;SDS011;9607;51.600;7.558;2022-09-09T18:38:03;1.38;;;1.27;;
18947;SDS011;9607;51.600;7.558;2022-09-09T18:40:30;1.95;;;1.48;;
18947;SDS011;9607;51.600;7.558;2022-09-09T18:42:57;1.60;;;1.50;;
18947;SDS011;9607;51.600;7.558;2022-09-09T18:45:24;1.45;;;1.35;;
18947;SDS011;9607;51.600;7.558;2022-09-09T18:47:50;2.03;;;1.20;;
18947;SDS011;9607;51.600;7.558;2022-09-09T18:50:17;2.30;;;1.60;;
18947;SDS011;9607;51.600;7.558;2022-09-09T18:52:45;2.70;;;1.67;;
18947;SDS011;9607;51.600;7.558;2022-09-09T18:55:13;1.75;;;1.65;;
18947;SDS011;9607;51.600;7.558;2022-09-09T18:57:40;1.67;;;1.40;;
18947;SDS011;9607;51.600;7.558;2022-09-09T19:00:09;1.88;;;1.77;;
18947;SDS011;9607;51.600;7.558;2022-09-09T19:02:37;3.90;;;2.80;;
18947;SDS011;9607;51.600;7.558;2022-09-09T19:05:04;4.22;;;2.80;;
18947;SDS011;9607;51.600;7.558;2022-09-09T19:07:31;2.33;;;2.08;;
18947;SDS011;9607;51.600;7.558;2022-09-09T19:09:59;3.67;;;2.50;;
18947;SDS011;9607;51.600;7.558;2022-09-09T19:12:26;3.10;;;2.13;;
18947;SDS011;9607;51.600;7.558;2022-09-09T19:14:55;2.47;;;2.28;;
18947;SDS011;9607;51.600;7.558;2022-09-09T19:17:21;1.90;;;1.80;;
18947;SDS011;9607;51.600;7.558;2022-09-09T19:19:50;2.60;;;2.10;;
18947;SDS011;9607;51.600;7.558;2022-09-09T19:22:17;2.42;;;1.88;;
18947;SDS011;9607;51.600;7.558;2022-09-09T19:24:43;1.80;;;1.70;;
18947;SDS011;9607;51.600;7.558;2022-09-09T19:27:12;1.70;;;1.60;;
18947;SDS011;9607;51.600;7.558;2022-09-09T19:29:38;2.75;;;1.65;;
18947;SDS011;9607;51.600;7.558;2022-09-09T19:32:07;1.77;;;1.45;;
18947;SDS011;9607;51.600;7.558;2022-09-09T19:34:35;3.78;;;1.65;;
18947;SDS011;9607;51.600;7.558;2022-09-09T19:37:02;2.25;;;2.00;;
18947;SDS011;9607;51.600;7.558;2022-09-09T19:39:29;1.42;;;1.20;;
18947;SDS011;9607;51.600;7.558;2022-09-09T19:41:58;1.73;;;1.63;;
18947;SDS011;9607;51.600;7.558;2022-09-09T19:44:26;2.20;;;1.73;;
18947;SDS011;9607;51.600;7.558;2022-09-09T19:46:53;1.40;;;1.27;;